Time;durP1;ratioP1;P1;durP2;ratioP2;P2;SDS_P1;SDS_P2;PMS_P1;PMS_P2;Temp;Humidity;BMP_temperature;BMP_pressure;BME280_temperature;BME280_humidity;BME280_pressure;Samples;Min_cycle;Max_cycle;Signal;HPM_P1;HPM_P2
2023/08/02 00:00:23;;;;;;;7.35;2.60;;;;;;;;;;5065721;28;20044;-57
2023/08/02 00:02:49;;;;;;;6.10;2.20;;;;;;;;;;5058948;28;20040;-58
2023/08/02 00:05:15;;;;;;;6.75;2.10;;;;;;;;;;5062945;28;20059;-58
2023/08/02 00:07:42;;;;;;;8.15;3.22;;;;;;;;;;5068427;28;20040;-58
2023/08/02 00:10:08;;;;;;;8.43;3.60;;;;;;;;;;5063738;28;20101;-57
2023/08/02 00:12:34;;;;;;;7.68;2.30;;;;;;;;;;5061669;28;20044;-58
2023/08/02 00:15:00;;;;;;;6.05;2.42;;;;;;;;;;5063016;28;20448;-58
2023/08/02 00:17:27;;;;;;;9.65;3.15;;;;;;;;;;5059664;28;20088;-58
2023/08/02 00:19:53;;;;;;;9.07;3.00;;;;;;;;;;5056908;28;20494;-58
2023/08/02 00:22:19;;;;;;;7.57;3.35;;;;;;;;;;5059673;28;20033;-58
2023/08/02 00:24:45;;;;;;;5.88;2.88;;;;;;;;;;5054038;28;20051;-58
2023/08/02 00:27:11;;;;;;;12.90;3.15;;;;;;;;;;5060392;28;20053;-58
2023/08/02 00:29:37;;;;;;;9.30;3.40;;;;;;;;;;5058222;28;20041;-58
2023/08/02 00:32:04;;;;;;;8.98;2.88;;;;;;;;;;5056713;28;20064;-58
2023/08/02 00:34:30;;;;;;;7.15;2.90;;;;;;;;;;5056889;28;20075;-58
2023/08/02 00:36:56;;;;;;;7.93;3.08;;;;;;;;;;5059022;28;20143;-58
2023/08/02 00:39:23;;;;;;;8.27;3.00;;;;;;;;;;5050862;28;20037;-58
2023/08/02 00:41:51;;;;;;;14.50;3.85;;;;;;;;;;5057505;28;20492;-58
2023/08/02 00:44:17;;;;;;;7.22;2.70;;;;;;;;;;5054357;28;20353;-58
2023/08/02 00:46:44;;;;;;;9.43;3.10;;;;;;;;;;5061958;28;20044;-58
2023/08/02 00:49:10;;;;;;;8.23;3.13;;;;;;;;;;5059345;28;20120;-58
2023/08/02 00:51:37;;;;;;;8.27;3.33;;;;;;;;;;5063727;28;20040;-58
2023/08/02 00:54:05;;;;;;;6.05;2.75;;;;;;;;;;5066637;28;20056;-58
2023/08/02 00:56:31;;;;;;;11.98;3.30;;;;;;;;;;5064681;28;20041;-58
2023/08/02 00:58:58;;;;;;;9.02;3.65;;;;;;;;;;5067779;28;20175;-58
2023/08/02 01:01:24;;;;;;;11.60;3.50;;;;;;;;;;5054420;28;20110;-58
2023/08/02 01:03:51;;;;;;;9.95;3.25;;;;;;;;;;5053517;28;20157;-58
2023/08/02 01:06:29;;;;;;;13.55;4.40;;;;;;;;;;5070123;28;20041;-58
2023/08/02 01:09:00;;;;;;;10.15;3.80;;;;;;;;;;5066422;28;20583;-58
2023/08/02 01:11:46;;;;;;;7.70;3.55;;;;;;;;;;5056769;28;20049;-58
2023/08/02 01:14:14;;;;;;;14.10;4.47;;;;;;;;;;5065979;28;20508;-58
2023/08/02 01:16:41;;;;;;;9.95;4.43;;;;;;;;;;5058130;28;20164;-58
2023/08/02 01:19:11;;;;;;;12.18;4.28;;;;;;;;;;5069411;28;20507;-58
2023/08/02 01:21:37;;;;;;;13.40;4.45;;;;;;;;;;5068704;28;20028;-58
2023/08/02 01:24:04;;;;;;;9.68;4.85;;;;;;;;;;5066391;28;20040;-58
2023/08/02 01:26:32;;;;;;;11.02;3.88;;;;;;;;;;5063325;28;20053;-58
2023/08/02 01:29:00;;;;;;;9.10;3.80;;;;;;;;;;5066152;28;20041;-58
2023/08/02 01:31:26;;;;;;;10.07;5.07;;;;;;;;;;5067340;28;20047;-58
2023/08/02 01:33:54;;;;;;;9.00;3.67;;;;;;;;;;5065032;28;20162;-58
2023/08/02 01:36:20;;;;;;;8.50;4.30;;;;;;;;;;5071025;28;20456;-58
2023/08/02 01:38:47;;;;;;;10.63;4.00;;;;;;;;;;5071042;28;20440;-58
2023/08/02 01:41:13;;;;;;;9.68;4.00;;;;;;;;;;5060671;28;20048;-58
2023/08/02 01:43:39;;;;;;;9.48;4.10;;;;;;;;;;5071641;28;20519;-58
2023/08/02 01:46:05;;;;;;;10.68;4.85;;;;;;;;;;5062053;28;20049;-58
2023/08/02 01:48:31;;;;;;;11.02;4.43;;;;;;;;;;5076685;28;20044;-58
2023/08/02 01:50:58;;;;;;;12.35;4.20;;;;;;;;;;5060611;28;20132;-58
2023/08/02 01:53:24;;;;;;;12.52;4.70;;;;;;;;;;5070130;28;20436;-58
2023/08/02 01:55:50;;;;;;;12.77;4.75;;;;;;;;;;5068675;28;20136;-58
2023/08/02 01:58:16;;;;;;;10.75;4.50;;;;;;;;;;5070131;28;20044;-58
2023/08/02 02:00:43;;;;;;;9.77;5.10;;;;;;;;;;5070271;28;20059;-58
2023/08/02 02:03:09;;;;;;;10.82;4.88;;;;;;;;;;5067582;28;20044;-58
2023/08/02 02:05:35;;;;;;;10.52;5.78;;;;;;;;;;5067808;28;20120;-58
2023/08/02 02:08:01;;;;;;;8.43;5.15;;;;;;;;;;5058306;28;20479;-58
2023/08/02 02:10:27;;;;;;;15.18;6.60;;;;;;;;;;5065835;28;20040;-58
2023/08/02 02:12:54;;;;;;;15.35;6.28;;;;;;;;;;5069196;28;20050;-59
2023/08/02 02:15:20;;;;;;;15.82;6.03;;;;;;;;;;5066139;28;20530;-58
2023/08/02 02:17:46;;;;;;;14.55;5.95;;;;;;;;;;5062595;28;20480;-58
2023/08/02 02:20:13;;;;;;;11.77;5.85;;;;;;;;;;5065345;28;20153;-58
2023/08/02 02:22:39;;;;;;;14.45;7.00;;;;;;;;;;5064570;28;20095;-58
2023/08/02 02:25:05;;;;;;;19.35;6.07;;;;;;;;;;5059974;28;20037;-58
2023/08/02 02:27:32;;;;;;;14.93;5.88;;;;;;;;;;5060953;28;20076;-58
2023/08/02 02:29:58;;;;;;;12.20;6.13;;;;;;;;;;5058933;28;20051;-58
2023/08/02 02:32:24;;;;;;;10.35;6.10;;;;;;;;;;5059788;28;20475;-58
2023/08/02 02:34:50;;;;;;;11.48;5.75;;;;;;;;;;5057668;28;20365;-58
2023/08/02 02:37:16;;;;;;;12.23;5.50;;;;;;;;;;5061198;28;20048;-58
2023/08/02 02:39:42;;;;;;;9.88;5.38;;;;;;;;;;5066425;28;20037;-58
2023/08/02 02:42:08;;;;;;;13.00;5.38;;;;;;;;;;5067352;28;20178;-58
2023/08/02 02:44:44;;;;;;;16.55;5.60;;;;;;;;;;5060024;28;20106;-58
2023/08/02 02:47:11;;;;;;;11.07;5.43;;;;;;;;;;5055637;28;20056;-58
2023/08/02 02:49:37;;;;;;;15.10;5.13;;;;;;;;;;5058822;28;20044;-58
2023/08/02 02:52:03;;;;;;;14.23;5.13;;;;;;;;;;5059847;28;20041;-58
2023/08/02 02:54:30;;;;;;;11.98;5.00;;;;;;;;;;5056643;28;20191;-58
2023/08/02 02:56:56;;;;;;;10.13;5.70;;;;;;;;;;5061550;28;20049;-58
2023/08/02 02:59:22;;;;;;;17.98;5.93;;;;;;;;;;5062336;28;20044;-58
2023/08/02 03:01:48;;;;;;;11.65;6.38;;;;;;;;;;5063791;28;20549;-58
2023/08/02 03:04:14;;;;;;;17.08;5.93;;;;;;;;;;5065383;28;20380;-58
2023/08/02 03:06:40;;;;;;;16.60;5.68;;;;;;;;;;5058918;28;20044;-58
2023/08/02 03:09:07;;;;;;;12.57;5.28;;;;;;;;;;5064486;28;20049;-58
2023/08/02 03:11:33;;;;;;;15.15;6.05;;;;;;;;;;5065365;28;20415;-58
2023/08/02 03:14:00;;;;;;;16.45;6.10;;;;;;;;;;5059626;28;20118;-58
2023/08/02 03:16:27;;;;;;;15.52;6.57;;;;;;;;;;5064820;28;20434;-58
2023/08/02 03:18:55;;;;;;;15.25;6.10;;;;;;;;;;5059156;28;20117;-58
2023/08/02 03:21:21;;;;;;;17.05;6.45;;;;;;;;;;5058182;28;20041;-58
2023/08/02 03:23:47;;;;;;;15.20;6.95;;;;;;;;;;5067683;28;20128;-58
2023/08/02 03:26:13;;;;;;;18.95;6.05;;;;;;;;;;5065036;28;20132;-58
2023/08/02 03:28:40;;;;;;;15.38;6.28;;;;;;;;;;5061610;28;20048;-58
2023/08/02 03:31:06;;;;;;;18.63;6.13;;;;;;;;;;5069156;28;20063;-58
2023/08/02 03:33:32;;;;;;;18.75;6.57;;;;;;;;;;5061069;28;20087;-58
2023/08/02 03:35:58;;;;;;;17.02;6.22;;;;;;;;;;5063873;28;20167;-58
2023/08/02 03:38:24;;;;;;;13.43;5.75;;;;;;;;;;5063051;28;20053;-58
2023/08/02 03:40:51;;;;;;;12.23;5.70;;;;;;;;;;5060772;28;20488;-58
2023/08/02 03:43:17;;;;;;;19.48;6.28;;;;;;;;;;5070678;28;20048;-58
2023/08/02 03:45:43;;;;;;;14.70;5.65;;;;;;;;;;5056628;28;20452;-59
2023/08/02 03:48:10;;;;;;;15.90;5.40;;;;;;;;;;5071443;28;20055;-58
2023/08/02 03:50:36;;;;;;;17.15;5.93;;;;;;;;;;5066460;28;20393;-58
2023/08/02 03:53:02;;;;;;;17.63;6.22;;;;;;;;;;5069150;28;20072;-58
2023/08/02 03:55:28;;;;;;;15.70;6.28;;;;;;;;;;5062129;28;20044;-57
2023/08/02 03:57:54;;;;;;;17.70;5.95;;;;;;;;;;5052816;28;20056;-58
2023/08/02 04:00:20;;;;;;;25.17;7.28;;;;;;;;;;5058202;28;20047;-58
2023/08/02 04:02:47;;;;;;;25.05;7.70;;;;;;;;;;5064347;28;20492;-58
2023/08/02 04:05:13;;;;;;;22.20;7.72;;;;;;;;;;5063158;28;20173;-58
2023/08/02 04:07:39;;;;;;;19.33;6.68;;;;;;;;;;5055464;28;20532;-58
2023/08/02 04:10:05;;;;;;;16.08;7.22;;;;;;;;;;5061077;28;20049;-58
2023/08/02 04:12:32;;;;;;;21.75;7.97;;;;;;;;;;5058753;28;20656;-58
2023/08/02 04:14:58;;;;;;;22.80;7.35;;;;;;;;;;5055749;28;20049;-58
2023/08/02 04:17:27;;;;;;;28.88;8.43;;;;;;;;;;5055498;28;20044;-58
2023/08/02 04:19:53;;;;;;;20.75;6.93;;;;;;;;;;5059138;28;20507;-58
2023/08/02 04:22:19;;;;;;;22.15;8.05;;;;;;;;;;5055250;28;20045;-58
2023/08/02 04:24:45;;;;;;;20.88;8.25;;;;;;;;;;5056191;28;20052;-58
2023/08/02 04:27:11;;;;;;;21.85;7.43;;;;;;;;;;5066517;28;20413;-58
2023/08/02 04:29:37;;;;;;;23.52;7.45;;;;;;;;;;5058149;28;20047;-58
2023/08/02 04:32:04;;;;;;;16.00;7.05;;;;;;;;;;5055231;28;20095;-58
2023/08/02 04:34:30;;;;;;;23.75;7.18;;;;;;;;;;5067832;28;20394;-58
2023/08/02 04:36:57;;;;;;;22.05;7.28;;;;;;;;;;5063848;28;20037;-58
2023/08/02 04:39:23;;;;;;;24.90;7.78;;;;;;;;;;5066744;28;20520;-58
2023/08/02 04:41:54;;;;;;;21.92;7.65;;;;;;;;;;5057812;28;20047;-58
2023/08/02 04:44:21;;;;;;;23.63;7.80;;;;;;;;;;5065193;28;20041;-58
2023/08/02 04:46:47;;;;;;;22.33;7.80;;;;;;;;;;5062623;28;20104;-58
2023/08/02 04:49:13;;;;;;;29.30;8.80;;;;;;;;;;5061585;28;20063;-58
2023/08/02 04:51:39;;;;;;;21.73;7.90;;;;;;;;;;5058791;28;20048;-57
2023/08/02 04:54:05;;;;;;;21.73;8.70;;;;;;;;;;5055874;28;20126;-58
2023/08/02 04:56:32;;;;;;;29.88;9.27;;;;;;;;;;5057475;28;20072;-58
2023/08/02 04:58:58;;;;;;;33.90;9.27;;;;;;;;;;5061035;28;20071;-58
2023/08/02 05:01:24;;;;;;;22.52;9.38;;;;;;;;;;5061868;28;20044;-58
2023/08/02 05:03:50;;;;;;;24.30;8.57;;;;;;;;;;5069835;28;20127;-58
2023/08/02 05:06:17;;;;;;;24.70;7.80;;;;;;;;;;5053571;28;20049;-58
2023/08/02 05:08:43;;;;;;;25.48;9.32;;;;;;;;;;5057277;28;20041;-58
2023/08/02 05:11:09;;;;;;;26.70;8.30;;;;;;;;;;5054674;28;20067;-59
2023/08/02 05:13:35;;;;;;;23.88;8.15;;;;;;;;;;5057888;28;20055;-58
2023/08/02 05:16:02;;;;;;;22.25;7.88;;;;;;;;;;5067875;28;20102;-58
2023/08/02 05:18:28;;;;;;;22.45;9.10;;;;;;;;;;5063075;28;20466;-58
2023/08/02 05:20:54;;;;;;;23.60;9.65;;;;;;;;;;5061409;28;20036;-58
2023/08/02 05:23:20;;;;;;;23.52;9.60;;;;;;;;;;5073751;28;20126;-58
2023/08/02 05:25:47;;;;;;;23.17;8.93;;;;;;;;;;5066098;28;20047;-58
2023/08/02 05:28:13;;;;;;;22.73;9.05;;;;;;;;;;5065214;28;20059;-58
2023/08/02 05:30:39;;;;;;;20.20;8.63;;;;;;;;;;5055778;28;20131;-58
2023/08/02 05:33:08;;;;;;;21.13;8.50;;;;;;;;;;5049420;28;20049;-58
2023/08/02 05:35:34;;;;;;;18.35;8.43;;;;;;;;;;5071282;28;20093;-58
2023/08/02 05:38:01;;;;;;;23.38;9.25;;;;;;;;;;5052927;28;20110;-73
2023/08/02 05:40:27;;;;;;;18.60;9.20;;;;;;;;;;5063102;28;20404;-58
2023/08/02 05:42:54;;;;;;;23.48;9.13;;;;;;;;;;5070358;28;20037;-58
2023/08/02 05:45:20;;;;;;;24.95;8.65;;;;;;;;;;5064078;28;20101;-58
2023/08/02 05:47:46;;;;;;;19.95;8.82;;;;;;;;;;5071434;28;20044;-58
2023/08/02 05:50:12;;;;;;;27.15;9.15;;;;;;;;;;5063042;28;20056;-58
2023/08/02 05:52:38;;;;;;;24.73;8.70;;;;;;;;;;5053296;28;20472;-58
2023/08/02 05:55:05;;;;;;;27.58;8.70;;;;;;;;;;5055340;28;20040;-58
2023/08/02 05:57:31;;;;;;;23.35;9.80;;;;;;;;;;5056494;28;20056;-58
2023/08/02 05:59:57;;;;;;;20.23;9.70;;;;;;;;;;5049127;28;20092;-58
2023/08/02 06:02:23;;;;;;;17.52;10.35;;;;;;;;;;5053666;28;20036;-58
2023/08/02 06:04:49;;;;;;;21.08;8.95;;;;;;;;;;5058412;28;20456;-58
2023/08/02 06:07:16;;;;;;;20.38;11.02;;;;;;;;;;5050393;28;20044;-58
2023/08/02 06:09:42;;;;;;;17.58;9.55;;;;;;;;;;5064503;28;20041;-58
2023/08/02 06:12:08;;;;;;;23.70;9.10;;;;;;;;;;5070163;28;20071;-58
2023/08/02 06:14:34;;;;;;;24.92;10.15;;;;;;;;;;5070732;28;20147;-58
2023/08/02 06:17:01;;;;;;;21.50;9.57;;;;;;;;;;5066402;28;20488;-58
2023/08/02 06:19:27;;;;;;;18.70;8.55;;;;;;;;;;5065126;28;20037;-57
2023/08/02 06:21:53;;;;;;;16.30;8.75;;;;;;;;;;5072986;28;20045;-59
2023/08/02 06:24:21;;;;;;;23.08;9.80;;;;;;;;;;5074254;28;20070;-59
2023/08/02 06:26:48;;;;;;;18.60;10.13;;;;;;;;;;5074741;28;20043;-60
2023/08/02 06:29:14;;;;;;;21.27;9.27;;;;;;;;;;5063567;28;20132;-59
2023/08/02 06:31:40;;;;;;;17.17;9.00;;;;;;;;;;5053169;28;20449;-59
2023/08/02 06:34:06;;;;;;;20.83;9.50;;;;;;;;;;5052362;28;20098;-59
2023/08/02 06:36:34;;;;;;;21.20;8.73;;;;;;;;;;5060976;28;20036;-59
2023/08/02 06:39:00;;;;;;;18.70;8.73;;;;;;;;;;5061249;28;20047;-59
2023/08/02 06:41:26;;;;;;;22.92;9.43;;;;;;;;;;5062290;28;20117;-59
2023/08/02 06:43:52;;;;;;;18.92;9.15;;;;;;;;;;5068320;28;20191;-59
2023/08/02 06:46:19;;;;;;;21.77;9.57;;;;;;;;;;5064026;28;20172;-59
2023/08/02 06:48:45;;;;;;;19.80;10.23;;;;;;;;;;5071652;28;20502;-59
2023/08/02 06:51:14;;;;;;;17.15;8.93;;;;;;;;;;5073554;28;20124;-59
2023/08/02 06:53:40;;;;;;;16.98;9.10;;;;;;;;;;5067279;28;20044;-58
2023/08/02 06:56:13;;;;;;;16.27;9.15;;;;;;;;;;5060786;28;20037;-59
2023/08/02 06:58:40;;;;;;;14.50;8.03;;;;;;;;;;5059896;28;20458;-59
2023/08/02 07:01:32;;;;;;;20.73;9.48;;;;;;;;;;5057861;28;20037;-59
2023/08/02 07:03:58;;;;;;;18.58;8.52;;;;;;;;;;5056846;28;20044;-59
2023/08/02 07:06:25;;;;;;;23.33;8.10;;;;;;;;;;5052881;28;20044;-59
2023/08/02 07:08:51;;;;;;;21.27;8.07;;;;;;;;;;5052387;28;20048;-59
2023/08/02 07:11:18;;;;;;;19.77;7.63;;;;;;;;;;5054260;28;20116;-59
2023/08/02 07:13:45;;;;;;;20.30;7.80;;;;;;;;;;5052088;28;20045;-59
2023/08/02 07:16:11;;;;;;;13.90;7.28;;;;;;;;;;5061558;28;20079;-59
2023/08/02 07:18:38;;;;;;;15.88;7.53;;;;;;;;;;5055712;28;20493;-59
2023/08/02 07:21:07;;;;;;;21.10;7.25;;;;;;;;;;5054364;28;20041;-58
2023/08/02 07:23:34;;;;;;;17.60;7.55;;;;;;;;;;5056081;28;20043;-59
2023/08/02 07:26:00;;;;;;;16.42;7.07;;;;;;;;;;5072600;28;20040;-59
2023/08/02 07:28:27;;;;;;;18.20;7.15;;;;;;;;;;5069005;28;20470;-59
2023/08/02 07:30:53;;;;;;;17.48;6.93;;;;;;;;;;5069322;28;20388;-59
2023/08/02 07:33:19;;;;;;;17.50;7.50;;;;;;;;;;5073528;28;20094;-59
2023/08/02 07:35:46;;;;;;;17.90;7.47;;;;;;;;;;5072959;28;20500;-59
2023/08/02 07:38:15;;;;;;;16.30;7.47;;;;;;;;;;5068911;28;20048;-59
2023/08/02 07:40:43;;;;;;;14.25;6.72;;;;;;;;;;5069458;28;20048;-59
2023/08/02 07:43:10;;;;;;;15.48;6.50;;;;;;;;;;5080007;28;20045;-59
2023/08/02 07:45:36;;;;;;;14.68;7.32;;;;;;;;;;5068552;28;20048;-59
2023/08/02 07:48:02;;;;;;;20.25;7.15;;;;;;;;;;5070109;28;20223;-59
2023/08/02 07:50:28;;;;;;;16.27;6.90;;;;;;;;;;5070450;28;20405;-59
2023/08/02 07:52:54;;;;;;;12.68;7.13;;;;;;;;;;5072333;28;20105;-59
2023/08/02 07:55:21;;;;;;;16.27;6.72;;;;;;;;;;5070731;28;20135;-59
2023/08/02 07:57:47;;;;;;;17.10;6.30;;;;;;;;;;5074158;28;20150;-59
2023/08/02 08:00:13;;;;;;;15.57;6.95;;;;;;;;;;5069965;28;20132;-59
2023/08/02 08:02:40;;;;;;;12.98;6.72;;;;;;;;;;5073065;28;20492;-59
2023/08/02 08:05:07;;;;;;;19.58;6.85;;;;;;;;;;5066003;28;20056;-59
2023/08/02 08:07:33;;;;;;;16.83;7.50;;;;;;;;;;5073040;28;20044;-59
2023/08/02 08:09:59;;;;;;;16.02;7.20;;;;;;;;;;5069522;28;20040;-59
2023/08/02 08:12:26;;;;;;;18.50;7.55;;;;;;;;;;5070375;28;20509;-59
2023/08/02 08:14:52;;;;;;;13.88;7.43;;;;;;;;;;5072607;28;20045;-59
2023/08/02 08:17:18;;;;;;;17.13;7.07;;;;;;;;;;5073104;28;20032;-59
2023/08/02 08:19:44;;;;;;;18.85;7.57;;;;;;;;;;5073632;28;20044;-59
2023/08/02 08:22:11;;;;;;;16.65;6.72;;;;;;;;;;5072390;28;20139;-59
2023/08/02 08:24:37;;;;;;;19.80;6.47;;;;;;;;;;5069760;28;20044;-59
2023/08/02 08:27:03;;;;;;;11.82;6.60;;;;;;;;;;5071772;28;20133;-59
2023/08/02 08:29:30;;;;;;;16.17;6.43;;;;;;;;;;5071826;28;20052;-59
2023/08/02 08:31:56;;;;;;;22.08;7.05;;;;;;;;;;5068324;28;20078;-59
2023/08/02 08:34:22;;;;;;;17.20;6.10;;;;;;;;;;5066557;28;20057;-59
2023/08/02 08:36:48;;;;;;;14.07;6.32;;;;;;;;;;5069445;28;20071;-59
2023/08/02 08:39:15;;;;;;;13.60;5.93;;;;;;;;;;5068771;28;20059;-59
2023/08/02 08:41:41;;;;;;;14.75;5.78;;;;;;;;;;5065734;28;20043;-59
2023/08/02 08:44:07;;;;;;;11.93;5.85;;;;;;;;;;5069531;28;20039;-59
2023/08/02 08:46:34;;;;;;;15.45;5.70;;;;;;;;;;5069670;28;20500;-59
2023/08/02 08:49:01;;;;;;;17.52;6.45;;;;;;;;;;5071366;28;20139;-59
2023/08/02 08:51:27;;;;;;;17.60;7.25;;;;;;;;;;5071274;28;20085;-59
2023/08/02 08:53:54;;;;;;;17.02;7.68;;;;;;;;;;5071069;28;20139;-59
2023/08/02 08:56:27;;;;;;;18.13;7.03;;;;;;;;;;5068975;28;20413;-59
2023/08/02 08:58:53;;;;;;;15.50;6.47;;;;;;;;;;5069768;28;20052;-59
2023/08/02 09:01:20;;;;;;;24.27;7.40;;;;;;;;;;5070367;28;20044;-59
2023/08/02 09:03:46;;;;;;;15.02;7.30;;;;;;;;;;5070765;28;20494;-59
2023/08/02 09:06:15;;;;;;;14.52;8.07;;;;;;;;;;5070141;28;20372;-59
2023/08/02 09:08:45;;;;;;;15.85;7.45;;;;;;;;;;5071807;28;20176;-59
2023/08/02 09:11:12;;;;;;;16.20;7.57;;;;;;;;;;5070411;28;20130;-59
2023/08/02 09:13:38;;;;;;;14.48;7.30;;;;;;;;;;5070704;28;20139;-59
2023/08/02 09:16:04;;;;;;;14.38;7.20;;;;;;;;;;5067726;28;20476;-59
2023/08/02 09:18:38;;;;;;;17.55;8.05;;;;;;;;;;5069719;28;20100;-59
2023/08/02 09:21:04;;;;;;;15.60;8.55;;;;;;;;;;5069449;28;20056;-59
2023/08/02 09:23:30;;;;;;;18.60;8.93;;;;;;;;;;5071056;28;20075;-59
2023/08/02 09:26:17;;;;;;;17.45;8.88;;;;;;;;;;5068291;28;20113;-59
2023/08/02 09:28:59;;;;;;;15.27;8.75;;;;;;;;;;5068286;28;20384;-59
2023/08/02 09:31:26;;;;;;;12.48;8.18;;;;;;;;;;5071173;28;20447;-59
2023/08/02 09:33:53;;;;;;;17.90;9.73;;;;;;;;;;5070611;28;20063;-59
2023/08/02 09:36:29;;;;;;;13.93;8.43;;;;;;;;;;5070367;28;20048;-59
2023/08/02 09:38:58;;;;;;;13.77;9.48;;;;;;;;;;5070373;28;20087;-59
2023/08/02 09:41:25;;;;;;;17.77;9.93;;;;;;;;;;5070903;28;20048;-59
2023/08/02 09:43:52;;;;;;;16.13;10.13;;;;;;;;;;5065571;28;20046;-59
2023/08/02 09:46:31;;;;;;;17.85;10.65;;;;;;;;;;5067265;28;20040;-59
2023/08/02 09:48:57;;;;;;;17.02;10.40;;;;;;;;;;5068637;28;20055;-59
2023/08/02 09:51:40;;;;;;;16.42;10.35;;;;;;;;;;5070294;28;20076;-59
2023/08/02 09:54:07;;;;;;;21.20;11.10;;;;;;;;;;5074114;28;20434;-59
2023/08/02 09:56:34;;;;;;;15.65;11.35;;;;;;;;;;5074788;28;20114;-59
2023/08/02 09:59:01;;;;;;;14.45;11.48;;;;;;;;;;5067861;28;20040;-59
2023/08/02 10:01:29;;;;;;;19.48;10.63;;;;;;;;;;5071895;28;20119;-59
2023/08/02 10:03:57;;;;;;;15.50;10.60;;;;;;;;;;5074568;28;20085;-59
2023/08/02 10:06:34;;;;;;;16.67;11.32;;;;;;;;;;5073706;28;20110;-59
2023/08/02 10:09:07;;;;;;;16.52;11.40;;;;;;;;;;5073369;28;20052;-59
2023/08/02 10:11:36;;;;;;;15.38;10.32;;;;;;;;;;5073883;28;20060;-59
2023/08/02 10:14:03;;;;;;;18.30;11.02;;;;;;;;;;5073643;28;20124;-59
2023/08/02 10:16:30;;;;;;;14.48;9.73;;;;;;;;;;5074049;28;20051;-59
2023/08/02 10:18:57;;;;;;;15.95;9.88;;;;;;;;;;5074707;28;20068;-59
2023/08/02 10:21:24;;;;;;;16.42;10.73;;;;;;;;;;5073758;28;20427;-59
2023/08/02 10:23:50;;;;;;;13.05;9.20;;;;;;;;;;5072888;28;20083;-59
2023/08/02 10:26:17;;;;;;;13.43;8.80;;;;;;;;;;5073600;28;20541;-59
2023/08/02 10:28:44;;;;;;;14.05;8.15;;;;;;;;;;5068327;28;20048;-59
2023/08/02 10:31:10;;;;;;;10.05;7.50;;;;;;;;;;5064425;28;20087;-59
2023/08/02 10:33:36;;;;;;;11.05;6.95;;;;;;;;;;5065420;28;20123;-59
2023/08/02 10:36:03;;;;;;;11.48;6.68;;;;;;;;;;5075297;28;20044;-58
2023/08/02 10:38:38;;;;;;;16.88;6.80;;;;;;;;;;5064260;28;20052;-59
2023/08/02 10:41:08;;;;;;;8.73;5.40;;;;;;;;;;5068793;28;20083;-59
2023/08/02 10:43:35;;;;;;;10.57;6.32;;;;;;;;;;5074724;28;20052;-59
2023/08/02 10:46:27;;;;;;;8.80;5.30;;;;;;;;;;5070873;28;20061;-60
2023/08/02 10:49:14;;;;;;;8.52;4.70;;;;;;;;;;5066035;28;20172;-59
2023/08/02 10:51:41;;;;;;;8.40;5.10;;;;;;;;;;5068260;28;20128;-59
2023/08/02 10:54:25;;;;;;;9.68;5.10;;;;;;;;;;5071472;28;20056;-59
2023/08/02 10:56:51;;;;;;;;;;;;;;;;;;5072839;28;20055;-59
2023/08/02 10:59:17;;;;;;;7.20;4.47;;;;;;;;;;5069052;28;20305;-59
2023/08/02 11:02:19;;;;;;;7.25;4.57;;;;;;;;;;5063363;28;20040;-60
2023/08/02 11:04:48;;;;;;;7.68;4.45;;;;;;;;;;5063915;28;20159;-60
2023/08/02 11:07:17;;;;;;;6.88;4.30;;;;;;;;;;5053788;28;20386;-59
2023/08/02 11:09:43;;;;;;;4.80;3.60;;;;;;;;;;5051961;28;20044;-60
2023/08/02 11:12:14;;;;;;;8.35;4.00;;;;;;;;;;5052664;28;20073;-59
2023/08/02 11:14:41;;;;;;;7.45;3.80;;;;;;;;;;5052363;28;20037;-59
2023/08/02 11:17:07;;;;;;;8.40;3.67;;;;;;;;;;5051777;28;20051;-59
2023/08/02 11:19:34;;;;;;;5.35;3.35;;;;;;;;;;5054265;28;20147;-59
2023/08/02 11:22:00;;;;;;;5.40;3.30;;;;;;;;;;5058687;28;20387;-60
2023/08/02 11:24:27;;;;;;;6.75;3.40;;;;;;;;;;5054870;28;20090;-59
2023/08/02 11:26:56;;;;;;;4.95;3.58;;;;;;;;;;5058821;28;20068;-59
2023/08/02 11:29:23;;;;;;;5.97;3.60;;;;;;;;;;5057570;28;20091;-59
2023/08/02 11:31:51;;;;;;;5.68;3.85;;;;;;;;;;5054669;28;20044;-59
2023/08/02 11:34:20;;;;;;;6.05;4.00;;;;;;;;;;5054386;28;20110;-59
2023/08/02 11:36:47;;;;;;;7.85;4.70;;;;;;;;;;5051261;28;20045;-59
2023/08/02 11:39:14;;;;;;;6.15;4.00;;;;;;;;;;5052458;28;20037;-59
2023/08/02 11:41:41;;;;;;;4.50;3.13;;;;;;;;;;5068402;28;20442;-59
2023/08/02 11:44:16;;;;;;;5.80;2.50;;;;;;;;;;5067713;28;20143;-59
2023/08/02 11:46:44;;;;;;;3.80;2.63;;;;;;;;;;5068626;28;20129;-59
2023/08/02 11:49:10;;;;;;;4.05;2.40;;;;;;;;;;5061061;28;20114;-60
2023/08/02 11:51:40;;;;;;;3.40;2.10;;;;;;;;;;5060920;28;20381;-60
2023/08/02 11:54:07;;;;;;;4.53;2.60;;;;;;;;;;5070912;28;20052;-60
2023/08/02 11:56:34;;;;;;;4.07;2.65;;;;;;;;;;5066486;28;20072;-59
2023/08/02 11:59:00;;;;;;;4.03;2.80;;;;;;;;;;5069765;28;20044;-60
2023/08/02 12:01:27;;;;;;;6.85;3.30;;;;;;;;;;5067937;28;20171;-59
2023/08/02 12:04:00;;;;;;;4.95;2.80;;;;;;;;;;5065216;28;20033;-60
2023/08/02 12:06:28;;;;;;;4.60;2.97;;;;;;;;;;5053222;28;20048;-59
2023/08/02 12:08:55;;;;;;;7.57;3.33;;;;;;;;;;5070148;28;20047;-59
2023/08/02 12:11:21;;;;;;;6.25;4.03;;;;;;;;;;5068485;28;20056;-60
2023/08/02 12:13:47;;;;;;;5.72;4.65;;;;;;;;;;5064969;28;20533;-59
2023/08/02 12:16:15;;;;;;;7.72;5.43;;;;;;;;;;5070226;28;20090;-59
2023/08/02 12:18:52;;;;;;;8.15;6.35;;;;;;;;;;5069742;28;20080;-59
2023/08/02 12:21:18;;;;;;;8.40;6.68;;;;;;;;;;5065485;28;20051;-59
2023/08/02 12:23:45;;;;;;;10.13;6.65;;;;;;;;;;5071120;28;20384;-59
2023/08/02 12:26:11;;;;;;;7.45;6.30;;;;;;;;;;5070388;28;20137;-59
2023/08/02 12:28:47;;;;;;;7.63;5.90;;;;;;;;;;5071278;28;20040;-59
2023/08/02 12:31:14;;;;;;;8.32;6.28;;;;;;;;;;5070951;28;20464;-59
2023/08/02 12:33:40;;;;;;;5.78;5.00;;;;;;;;;;5069301;28;20080;-59
2023/08/02 12:36:07;;;;;;;7.18;4.70;;;;;;;;;;5069925;28;20362;-59
2023/08/02 12:38:34;;;;;;;5.13;3.33;;;;;;;;;;5070295;28;20060;-60
2023/08/02 12:41:02;;;;;;;5.78;3.67;;;;;;;;;;5068087;28;20056;-59
2023/08/02 12:43:29;;;;;;;5.80;3.17;;;;;;;;;;5070816;28;20102;-59
2023/08/02 12:45:55;;;;;;;4.20;3.00;;;;;;;;;;5070696;28;20060;-60
2023/08/02 12:48:21;;;;;;;4.75;3.10;;;;;;;;;;5066781;28;20063;-59
2023/08/02 12:50:47;;;;;;;3.40;2.53;;;;;;;;;;5069309;28;20152;-59
2023/08/02 12:53:14;;;;;;;5.15;2.50;;;;;;;;;;5070498;28;20045;-60
2023/08/02 12:55:40;;;;;;;5.63;2.17;;;;;;;;;;5069974;28;20051;-60
2023/08/02 12:58:06;;;;;;;5.72;2.30;;;;;;;;;;5069606;28;20058;-60
2023/08/02 13:00:32;;;;;;;8.52;3.05;;;;;;;;;;5066280;28;20453;-59
2023/08/02 13:02:59;;;;;;;5.50;1.90;;;;;;;;;;5063487;28;20045;-61
2023/08/02 13:05:25;;;;;;;5.60;1.90;;;;;;;;;;5070618;28;20396;-59
2023/08/02 13:07:51;;;;;;;5.05;1.95;;;;;;;;;;5070683;28;20540;-60
2023/08/02 13:10:17;;;;;;;5.85;2.30;;;;;;;;;;5069387;28;20052;-59
2023/08/02 13:12:43;;;;;;;6.43;2.00;;;;;;;;;;5070173;28;20400;-60
2023/08/02 13:15:10;;;;;;;7.03;2.13;;;;;;;;;;5068676;28;20037;-60
2023/08/02 13:17:36;;;;;;;5.78;1.80;;;;;;;;;;5056460;28;20120;-60
2023/08/02 13:20:03;;;;;;;7.57;1.90;;;;;;;;;;5064420;28;20041;-60
2023/08/02 13:22:29;;;;;;;8.65;2.10;;;;;;;;;;5069842;28;20142;-60
2023/08/02 13:24:55;;;;;;;6.55;2.10;;;;;;;;;;5070481;28;20094;-60
2023/08/02 13:27:21;;;;;;;11.75;2.40;;;;;;;;;;5071514;28;20041;-60
2023/08/02 13:29:47;;;;;;;8.85;2.22;;;;;;;;;;5072447;28;20032;-60
2023/08/02 13:32:14;;;;;;;10.50;2.78;;;;;;;;;;5073999;28;20055;-59
2023/08/02 13:34:40;;;;;;;9.90;1.88;;;;;;;;;;5074589;28;20036;-60
2023/08/02 13:37:06;;;;;;;7.47;2.00;;;;;;;;;;5073375;28;20076;-60
2023/08/02 13:39:33;;;;;;;9.07;2.50;;;;;;;;;;5071582;28;20045;-60
2023/08/02 13:41:59;;;;;;;8.07;2.28;;;;;;;;;;5062997;28;20448;-60
2023/08/02 13:44:26;;;;;;;7.55;1.92;;;;;;;;;;5072006;28;20075;-60
2023/08/02 13:46:52;;;;;;;8.30;1.92;;;;;;;;;;5071093;28;20052;-60
2023/08/02 13:49:18;;;;;;;9.98;2.08;;;;;;;;;;5067118;28;20492;-60
2023/08/02 13:51:44;;;;;;;10.05;2.35;;;;;;;;;;5071401;28;20047;-59
2023/08/02 13:54:10;;;;;;;8.65;2.65;;;;;;;;;;5074038;28;20041;-60
2023/08/02 13:56:37;;;;;;;15.55;2.45;;;;;;;;;;5071152;28;20043;-59
2023/08/02 13:59:03;;;;;;;9.05;2.22;;;;;;;;;;5071796;28;20416;-59
2023/08/02 14:01:29;;;;;;;8.35;2.33;;;;;;;;;;5073015;28;20103;-60
2023/08/02 14:03:55;;;;;;;8.15;2.25;;;;;;;;;;5069880;28;20428;-60
2023/08/02 14:06:22;;;;;;;10.30;1.60;;;;;;;;;;5073082;28;20400;-59
2023/08/02 14:08:48;;;;;;;10.15;1.80;;;;;;;;;;5073753;28;20187;-60
2023/08/02 14:11:14;;;;;;;8.85;1.73;;;;;;;;;;5073567;28;20062;-59
2023/08/02 14:13:40;;;;;;;8.13;1.73;;;;;;;;;;5072850;28;20053;-60
2023/08/02 14:16:06;;;;;;;7.90;1.77;;;;;;;;;;5069880;28;20068;-60
2023/08/02 14:18:33;;;;;;;9.88;2.05;;;;;;;;;;5068353;28;20045;-60
2023/08/02 14:20:59;;;;;;;8.07;2.25;;;;;;;;;;5073698;28;20128;-60
2023/08/02 14:23:25;;;;;;;11.50;1.90;;;;;;;;;;5073448;28;20080;-59
2023/08/02 14:25:51;;;;;;;11.48;2.05;;;;;;;;;;5071678;28;20036;-60
2023/08/02 14:28:18;;;;;;;9.18;1.83;;;;;;;;;;5058758;28;20045;-60
2023/08/02 14:30:44;;;;;;;10.45;1.85;;;;;;;;;;5071173;28;20090;-59
2023/08/02 14:33:10;;;;;;;14.75;2.50;;;;;;;;;;5068836;28;20072;-59